sensor_id;sensor_type;location;lat;lon;timestamp;P1;durP1;ratioP1;P2;durP2;ratioP2
16969;SDS011;8601;48.718;8.992;2022-08-19T00:00:22;15.17;;;13.63;;
16969;SDS011;8601;48.718;8.992;2022-08-19T00:02:52;14.03;;;12.67;;
16969;SDS011;8601;48.718;8.992;2022-08-19T00:05:20;14.53;;;13.13;;
16969;SDS011;8601;48.718;8.992;2022-08-19T00:07:48;15.17;;;13.67;;
16969;SDS011;8601;48.718;8.992;2022-08-19T00:10:17;14.90;;;13.40;;
16969;SDS011;8601;48.718;8.992;2022-08-19T00:12:45;14.60;;;13.13;;
16969;SDS011;8601;48.718;8.992;2022-08-19T00:15:13;15.53;;;13.93;;
16969;SDS011;8601;48.718;8.992;2022-08-19T00:17:43;15.57;;;13.37;;
16969;SDS011;8601;48.718;8.992;2022-08-19T00:20:12;15.13;;;13.63;;
16969;SDS011;8601;48.718;8.992;2022-08-19T00:22:41;14.27;;;12.93;;
16969;SDS011;8601;48.718;8.992;2022-08-19T00:25:09;15.40;;;13.80;;
16969;SDS011;8601;48.718;8.992;2022-08-19T00:27:36;15.33;;;13.77;;
16969;SDS011;8601;48.718;8.992;2022-08-19T00:30:04;17.37;;;14.80;;
16969;SDS011;8601;48.718;8.992;2022-08-19T00:32:35;16.47;;;14.33;;
16969;SDS011;8601;48.718;8.992;2022-08-19T00:35:03;16.00;;;14.07;;
16969;SDS011;8601;48.718;8.992;2022-08-19T00:37:32;18.67;;;14.73;;
16969;SDS011;8601;48.718;8.992;2022-08-19T00:40:00;16.70;;;14.87;;
16969;SDS011;8601;48.718;8.992;2022-08-19T00:42:29;18.03;;;14.57;;
16969;SDS011;8601;48.718;8.992;2022-08-19T00:44:56;16.37;;;14.70;;
16969;SDS011;8601;48.718;8.992;2022-08-19T00:47:23;18.10;;;16.20;;
16969;SDS011;8601;48.718;8.992;2022-08-19T00:49:51;19.63;;;15.37;;
16969;SDS011;8601;48.718;8.992;2022-08-19T00:52:21;17.67;;;15.80;;
16969;SDS011;8601;48.718;8.992;2022-08-19T00:54:53;17.73;;;15.83;;
16969;SDS011;8601;48.718;8.992;2022-08-19T00:57:22;18.47;;;16.57;;
16969;SDS011;8601;48.718;8.992;2022-08-19T00:59:54;17.50;;;15.17;;
16969;SDS011;8601;48.718;8.992;2022-08-19T01:02:22;17.07;;;15.37;;
16969;SDS011;8601;48.718;8.992;2022-08-19T01:04:49;15.50;;;14.00;;
16969;SDS011;8601;48.718;8.992;2022-08-19T01:07:16;15.43;;;13.97;;
16969;SDS011;8601;48.718;8.992;2022-08-19T01:09:44;18.70;;;16.80;;
16969;SDS011;8601;48.718;8.992;2022-08-19T01:12:13;17.40;;;15.70;;
16969;SDS011;8601;48.718;8.992;2022-08-19T01:14:40;17.77;;;15.87;;
16969;SDS011;8601;48.718;8.992;2022-08-19T01:17:07;18.40;;;16.50;;
16969;SDS011;8601;48.718;8.992;2022-08-19T01:19:36;17.57;;;15.77;;
16969;SDS011;8601;48.718;8.992;2022-08-19T01:22:06;18.20;;;16.30;;
16969;SDS011;8601;48.718;8.992;2022-08-19T01:24:39;18.63;;;16.33;;
16969;SDS011;8601;48.718;8.992;2022-08-19T01:27:07;17.50;;;15.20;;
16969;SDS011;8601;48.718;8.992;2022-08-19T01:29:37;19.10;;;16.17;;
16969;SDS011;8601;48.718;8.992;2022-08-19T01:32:05;17.77;;;15.87;;
16969;SDS011;8601;48.718;8.992;2022-08-19T01:34:33;18.40;;;16.50;;
16969;SDS011;8601;48.718;8.992;2022-08-19T01:37:01;21.37;;;18.37;;
16969;SDS011;8601;48.718;8.992;2022-08-19T01:39:33;18.83;;;16.90;;
16969;SDS011;8601;48.718;8.992;2022-08-19T01:42:02;18.43;;;16.40;;
16969;SDS011;8601;48.718;8.992;2022-08-19T01:44:31;18.33;;;16.43;;
16969;SDS011;8601;48.718;8.992;2022-08-19T01:46:58;19.60;;;17.20;;
16969;SDS011;8601;48.718;8.992;2022-08-19T01:49:25;18.70;;;16.80;;
16969;SDS011;8601;48.718;8.992;2022-08-19T01:51:52;18.37;;;16.47;;
16969;SDS011;8601;48.718;8.992;2022-08-19T01:54:20;19.07;;;17.07;;
16969;SDS011;8601;48.718;8.992;2022-08-19T01:56:48;19.87;;;16.83;;
16969;SDS011;8601;48.718;8.992;2022-08-19T01:59:19;19.90;;;17.90;;
16969;SDS011;8601;48.718;8.992;2022-08-19T02:01:50;23.93;;;17.97;;
16969;SDS011;8601;48.718;8.992;2022-08-19T02:04:17;19.00;;;16.53;;
16969;SDS011;8601;48.718;8.992;2022-08-19T02:06:44;20.80;;;18.20;;
16969;SDS011;8601;48.718;8.992;2022-08-19T02:09:11;21.27;;;19.07;;
16969;SDS011;8601;48.718;8.992;2022-08-19T02:11:38;20.47;;;18.27;;
16969;SDS011;8601;48.718;8.992;2022-08-19T02:14:05;19.83;;;17.73;;
16969;SDS011;8601;48.718;8.992;2022-08-19T02:16:35;20.00;;;17.87;;
16969;SDS011;8601;48.718;8.992;2022-08-19T02:19:03;19.90;;;17.97;;
16969;SDS011;8601;48.718;8.992;2022-08-19T02:21:31;19.90;;;17.83;;
16969;SDS011;8601;48.718;8.992;2022-08-19T02:23:58;20.10;;;18.00;;
16969;SDS011;8601;48.718;8.992;2022-08-19T02:26:25;22.40;;;19.57;;
16969;SDS011;8601;48.718;8.992;2022-08-19T02:28:53;21.83;;;19.33;;
16969;SDS011;8601;48.718;8.992;2022-08-19T02:31:21;21.63;;;18.77;;
16969;SDS011;8601;48.718;8.992;2022-08-19T02:33:51;20.80;;;18.40;;
16969;SDS011;8601;48.718;8.992;2022-08-19T02:36:18;22.97;;;19.57;;
16969;SDS011;8601;48.718;8.992;2022-08-19T02:38:45;20.50;;;18.30;;
16969;SDS011;8601;48.718;8.992;2022-08-19T02:41:12;20.50;;;18.33;;
16969;SDS011;8601;48.718;8.992;2022-08-19T02:43:40;21.23;;;18.03;;
16969;SDS011;8601;48.718;8.992;2022-08-19T02:46:11;20.63;;;18.63;;
16969;SDS011;8601;48.718;8.992;2022-08-19T02:48:39;19.47;;;17.37;;
16969;SDS011;8601;48.718;8.992;2022-08-19T02:51:08;22.10;;;19.60;;
16969;SDS011;8601;48.718;8.992;2022-08-19T02:53:34;20.30;;;18.20;;
16969;SDS011;8601;48.718;8.992;2022-08-19T02:56:05;21.33;;;18.90;;
16969;SDS011;8601;48.718;8.992;2022-08-19T02:58:32;22.13;;;19.87;;
16969;SDS011;8601;48.718;8.992;2022-08-19T03:01:00;20.83;;;18.63;;
16969;SDS011;8601;48.718;8.992;2022-08-19T03:03:27;22.23;;;19.27;;
16969;SDS011;8601;48.718;8.992;2022-08-19T03:06:04;23.60;;;18.97;;
16969;SDS011;8601;48.718;8.992;2022-08-19T03:08:34;20.87;;;18.67;;
16969;SDS011;8601;48.718;8.992;2022-08-19T03:11:03;23.77;;;21.27;;
16969;SDS011;8601;48.718;8.992;2022-08-19T03:13:30;23.13;;;20.63;;
16969;SDS011;8601;48.718;8.992;2022-08-19T03:15:57;20.63;;;18.53;;
16969;SDS011;8601;48.718;8.992;2022-08-19T03:18:24;23.57;;;21.00;;
16969;SDS011;8601;48.718;8.992;2022-08-19T03:20:52;21.93;;;19.37;;
16969;SDS011;8601;48.718;8.992;2022-08-19T03:23:19;24.60;;;21.93;;
16969;SDS011;8601;48.718;8.992;2022-08-19T03:25:49;24.70;;;22.23;;
16969;SDS011;8601;48.718;8.992;2022-08-19T03:28:19;24.27;;;21.77;;
16969;SDS011;8601;48.718;8.992;2022-08-19T03:30:56;24.80;;;22.27;;
16969;SDS011;8601;48.718;8.992;2022-08-19T03:33:25;24.20;;;21.20;;
16969;SDS011;8601;48.718;8.992;2022-08-19T03:35:59;24.00;;;21.40;;
16969;SDS011;8601;48.718;8.992;2022-08-19T03:38:27;26.13;;;20.73;;
16969;SDS011;8601;48.718;8.992;2022-08-19T03:40:56;24.60;;;21.73;;
16969;SDS011;8601;48.718;8.992;2022-08-19T03:43:23;24.87;;;22.30;;
16969;SDS011;8601;48.718;8.992;2022-08-19T03:45:58;25.10;;;22.60;;
16969;SDS011;8601;48.718;8.992;2022-08-19T03:48:26;23.97;;;21.47;;
16969;SDS011;8601;48.718;8.992;2022-08-19T03:50:53;24.03;;;21.53;;
16969;SDS011;8601;48.718;8.992;2022-08-19T03:53:20;25.97;;;23.37;;
16969;SDS011;8601;48.718;8.992;2022-08-19T03:55:47;25.73;;;22.93;;
16969;SDS011;8601;48.718;8.992;2022-08-19T03:58:15;25.50;;;22.80;;
16969;SDS011;8601;48.718;8.992;2022-08-19T04:00:42;25.00;;;22.50;;
16969;SDS011;8601;48.718;8.992;2022-08-19T04:03:09;25.53;;;22.77;;
16969;SDS011;8601;48.718;8.992;2022-08-19T04:05:36;25.63;;;23.07;;
16969;SDS011;8601;48.718;8.992;2022-08-19T04:08:03;25.43;;;22.73;;
16969;SDS011;8601;48.718;8.992;2022-08-19T04:10:30;24.90;;;22.30;;
16969;SDS011;8601;48.718;8.992;2022-08-19T04:13:01;25.90;;;23.17;;
16969;SDS011;8601;48.718;8.992;2022-08-19T04:15:30;26.63;;;23.90;;
16969;SDS011;8601;48.718;8.992;2022-08-19T04:18:03;25.57;;;22.87;;
16969;SDS011;8601;48.718;8.992;2022-08-19T04:20:37;26.83;;;24.00;;
16969;SDS011;8601;48.718;8.992;2022-08-19T04:23:05;25.57;;;22.93;;
16969;SDS011;8601;48.718;8.992;2022-08-19T04:25:35;26.10;;;23.40;;
16969;SDS011;8601;48.718;8.992;2022-08-19T04:28:03;26.70;;;23.90;;
16969;SDS011;8601;48.718;8.992;2022-08-19T04:30:36;27.17;;;24.30;;
16969;SDS011;8601;48.718;8.992;2022-08-19T04:33:04;27.17;;;24.40;;
16969;SDS011;8601;48.718;8.992;2022-08-19T04:35:34;31.67;;;25.47;;
16969;SDS011;8601;48.718;8.992;2022-08-19T04:38:02;26.63;;;23.73;;
16969;SDS011;8601;48.718;8.992;2022-08-19T04:40:29;26.03;;;23.33;;
16969;SDS011;8601;48.718;8.992;2022-08-19T04:43:14;27.27;;;23.37;;
16969;SDS011;8601;48.718;8.992;2022-08-19T04:45:43;26.63;;;23.93;;
16969;SDS011;8601;48.718;8.992;2022-08-19T04:48:11;27.83;;;23.93;;
16969;SDS011;8601;48.718;8.992;2022-08-19T04:50:39;28.43;;;25.43;;
16969;SDS011;8601;48.718;8.992;2022-08-19T04:53:07;27.43;;;24.43;;
16969;SDS011;8601;48.718;8.992;2022-08-19T04:55:37;27.97;;;25.07;;
16969;SDS011;8601;48.718;8.992;2022-08-19T04:58:06;28.23;;;25.23;;
16969;SDS011;8601;48.718;8.992;2022-08-19T05:00:33;26.80;;;24.20;;
16969;SDS011;8601;48.718;8.992;2022-08-19T05:03:04;28.30;;;25.13;;
16969;SDS011;8601;48.718;8.992;2022-08-19T05:05:32;28.63;;;25.63;;
16969;SDS011;8601;48.718;8.992;2022-08-19T05:07:59;29.70;;;24.60;;
16969;SDS011;8601;48.718;8.992;2022-08-19T05:10:26;27.23;;;24.37;;
16969;SDS011;8601;48.718;8.992;2022-08-19T05:12:53;26.67;;;23.83;;
16969;SDS011;8601;48.718;8.992;2022-08-19T05:15:20;28.90;;;25.80;;
16969;SDS011;8601;48.718;8.992;2022-08-19T05:17:48;26.83;;;24.00;;
16969;SDS011;8601;48.718;8.992;2022-08-19T05:20:30;27.80;;;24.90;;
16969;SDS011;8601;48.718;8.992;2022-08-19T05:23:14;30.17;;;25.73;;
16969;SDS011;8601;48.718;8.992;2022-08-19T05:25:42;28.13;;;25.23;;
16969;SDS011;8601;48.718;8.992;2022-08-19T05:28:09;28.70;;;25.60;;
16969;SDS011;8601;48.718;8.992;2022-08-19T05:30:36;27.83;;;25.00;;
16969;SDS011;8601;48.718;8.992;2022-08-19T05:33:03;29.33;;;24.73;;
16969;SDS011;8601;48.718;8.992;2022-08-19T05:35:31;28.60;;;24.77;;
16969;SDS011;8601;48.718;8.992;2022-08-19T05:37:58;28.63;;;25.63;;
16969;SDS011;8601;48.718;8.992;2022-08-19T05:40:26;26.93;;;24.13;;
16969;SDS011;8601;48.718;8.992;2022-08-19T05:42:53;26.50;;;23.77;;
16969;SDS011;8601;48.718;8.992;2022-08-19T05:45:20;27.93;;;24.93;;
16969;SDS011;8601;48.718;8.992;2022-08-19T05:47:47;26.10;;;23.07;;
16969;SDS011;8601;48.718;8.992;2022-08-19T05:50:15;27.23;;;24.37;;
16969;SDS011;8601;48.718;8.992;2022-08-19T05:52:44;27.67;;;24.80;;
16969;SDS011;8601;48.718;8.992;2022-08-19T05:55:11;26.47;;;23.57;;
16969;SDS011;8601;48.718;8.992;2022-08-19T05:57:38;27.00;;;24.10;;
16969;SDS011;8601;48.718;8.992;2022-08-19T06:00:05;27.67;;;24.87;;
16969;SDS011;8601;48.718;8.992;2022-08-19T06:02:35;26.57;;;23.23;;
16969;SDS011;8601;48.718;8.992;2022-08-19T06:05:03;28.80;;;25.30;;
16969;SDS011;8601;48.718;8.992;2022-08-19T06:07:33;26.70;;;23.83;;
16969;SDS011;8601;48.718;8.992;2022-08-19T06:10:03;27.70;;;24.70;;
16969;SDS011;8601;48.718;8.992;2022-08-19T06:12:31;26.57;;;23.87;;
16969;SDS011;8601;48.718;8.992;2022-08-19T06:15:00;27.67;;;24.87;;
16969;SDS011;8601;48.718;8.992;2022-08-19T06:17:29;27.23;;;23.73;;
16969;SDS011;8601;48.718;8.992;2022-08-19T06:19:56;26.77;;;24.07;;
16969;SDS011;8601;48.718;8.992;2022-08-19T06:22:23;28.57;;;25.57;;
16969;SDS011;8601;48.718;8.992;2022-08-19T06:24:50;25.80;;;23.10;;
16969;SDS011;8601;48.718;8.992;2022-08-19T06:27:20;25.50;;;22.80;;
16969;SDS011;8601;48.718;8.992;2022-08-19T06:29:48;26.17;;;23.47;;
16969;SDS011;8601;48.718;8.992;2022-08-19T06:32:15;26.10;;;23.33;;
16969;SDS011;8601;48.718;8.992;2022-08-19T06:34:43;26.17;;;23.47;;
16969;SDS011;8601;48.718;8.992;2022-08-19T06:37:10;26.70;;;24.00;;
16969;SDS011;8601;48.718;8.992;2022-08-19T06:39:38;26.67;;;23.87;;
16969;SDS011;8601;48.718;8.992;2022-08-19T06:42:07;25.77;;;23.17;;
16969;SDS011;8601;48.718;8.992;2022-08-19T06:44:39;26.53;;;23.83;;
16969;SDS011;8601;48.718;8.992;2022-08-19T06:47:08;25.77;;;23.17;;
16969;SDS011;8601;48.718;8.992;2022-08-19T06:49:38;25.70;;;23.10;;
16969;SDS011;8601;48.718;8.992;2022-08-19T06:52:05;26.17;;;23.57;;
16969;SDS011;8601;48.718;8.992;2022-08-19T06:54:32;25.13;;;22.50;;
16969;SDS011;8601;48.718;8.992;2022-08-19T06:57:00;26.70;;;21.80;;
16969;SDS011;8601;48.718;8.992;2022-08-19T06:59:29;24.53;;;22.03;;
16969;SDS011;8601;48.718;8.992;2022-08-19T07:02:00;25.37;;;22.73;;
16969;SDS011;8601;48.718;8.992;2022-08-19T07:04:30;25.10;;;22.50;;
16969;SDS011;8601;48.718;8.992;2022-08-19T07:06:59;24.73;;;22.10;;
16969;SDS011;8601;48.718;8.992;2022-08-19T07:09:28;25.90;;;22.20;;
16969;SDS011;8601;48.718;8.992;2022-08-19T07:11:56;25.73;;;23.13;;
16969;SDS011;8601;48.718;8.992;2022-08-19T07:14:24;23.80;;;21.40;;
16969;SDS011;8601;48.718;8.992;2022-08-19T07:16:53;23.93;;;21.47;;
16969;SDS011;8601;48.718;8.992;2022-08-19T07:19:23;24.40;;;21.87;;
16969;SDS011;8601;48.718;8.992;2022-08-19T07:21:52;23.40;;;20.97;;
16969;SDS011;8601;48.718;8.992;2022-08-19T07:24:20;23.70;;;21.23;;
16969;SDS011;8601;48.718;8.992;2022-08-19T07:26:49;22.63;;;20.43;;
16969;SDS011;8601;48.718;8.992;2022-08-19T07:29:18;24.57;;;18.77;;
16969;SDS011;8601;48.718;8.992;2022-08-19T07:31:49;22.80;;;20.53;;
16969;SDS011;8601;48.718;8.992;2022-08-19T07:34:16;20.77;;;18.53;;
16969;SDS011;8601;48.718;8.992;2022-08-19T07:36:45;20.87;;;18.87;;
16969;SDS011;8601;48.718;8.992;2022-08-19T07:39:13;20.50;;;18.50;;
16969;SDS011;8601;48.718;8.992;2022-08-19T07:41:42;22.53;;;20.27;;
16969;SDS011;8601;48.718;8.992;2022-08-19T07:44:10;21.40;;;19.23;;
16969;SDS011;8601;48.718;8.992;2022-08-19T07:46:39;22.37;;;20.03;;
16969;SDS011;8601;48.718;8.992;2022-08-19T07:49:10;21.03;;;18.97;;
16969;SDS011;8601;48.718;8.992;2022-08-19T07:51:42;22.53;;;20.33;;
16969;SDS011;8601;48.718;8.992;2022-08-19T07:54:12;22.93;;;20.63;;
16969;SDS011;8601;48.718;8.992;2022-08-19T07:56:39;21.57;;;19.27;;
16969;SDS011;8601;48.718;8.992;2022-08-19T07:59:06;21.53;;;19.27;;
16969;SDS011;8601;48.718;8.992;2022-08-19T08:01:34;21.07;;;18.97;;
16969;SDS011;8601;48.718;8.992;2022-08-19T08:04:02;20.93;;;18.83;;
16969;SDS011;8601;48.718;8.992;2022-08-19T08:06:48;21.50;;;17.90;;
16969;SDS011;8601;48.718;8.992;2022-08-19T08:09:35;20.20;;;18.23;;
16969;SDS011;8601;48.718;8.992;2022-08-19T08:12:04;20.50;;;18.33;;
16969;SDS011;8601;48.718;8.992;2022-08-19T08:14:34;20.40;;;18.23;;
16969;SDS011;8601;48.718;8.992;2022-08-19T08:17:09;20.40;;;18.33;;
16969;SDS011;8601;48.718;8.992;2022-08-19T08:19:38;22.27;;;19.23;;
16969;SDS011;8601;48.718;8.992;2022-08-19T08:22:07;21.23;;;18.53;;
16969;SDS011;8601;48.718;8.992;2022-08-19T08:24:56;21.00;;;18.83;;
16969;SDS011;8601;48.718;8.992;2022-08-19T08:27:27;20.00;;;17.93;;
16969;SDS011;8601;48.718;8.992;2022-08-19T08:29:56;20.17;;;18.10;;
16969;SDS011;8601;48.718;8.992;2022-08-19T08:32:23;20.97;;;18.80;;
16969;SDS011;8601;48.718;8.992;2022-08-19T08:34:50;20.17;;;17.93;;
16969;SDS011;8601;48.718;8.992;2022-08-19T08:37:20;19.90;;;17.80;;
16969;SDS011;8601;48.718;8.992;2022-08-19T08:39:47;20.10;;;18.10;;
16969;SDS011;8601;48.718;8.992;2022-08-19T08:42:17;19.90;;;17.77;;
16969;SDS011;8601;48.718;8.992;2022-08-19T08:44:53;19.13;;;17.13;;
16969;SDS011;8601;48.718;8.992;2022-08-19T08:47:25;20.60;;;18.00;;
16969;SDS011;8601;48.718;8.992;2022-08-19T08:49:56;22.57;;;18.93;;
16969;SDS011;8601;48.718;8.992;2022-08-19T08:52:29;21.57;;;19.20;;
16969;SDS011;8601;48.718;8.992;2022-08-19T08:55:00;20.90;;;18.90;;
16969;SDS011;8601;48.718;8.992;2022-08-19T08:57:32;20.73;;;18.70;;
16969;SDS011;8601;48.718;8.992;2022-08-19T09:00:06;20.00;;;18.03;;
16969;SDS011;8601;48.718;8.992;2022-08-19T09:02:36;20.03;;;18.00;;
16969;SDS011;8601;48.718;8.992;2022-08-19T09:05:04;19.70;;;17.90;;
16969;SDS011;8601;48.718;8.992;2022-08-19T09:07:39;19.87;;;17.87;;
16969;SDS011;8601;48.718;8.992;2022-08-19T09:10:15;19.20;;;16.90;;
16969;SDS011;8601;48.718;8.992;2022-08-19T09:12:50;18.73;;;16.93;;
16969;SDS011;8601;48.718;8.992;2022-08-19T09:15:27;19.53;;;17.60;;
16969;SDS011;8601;48.718;8.992;2022-08-19T09:18:00;19.20;;;17.37;;
16969;SDS011;8601;48.718;8.992;2022-08-19T09:20:28;19.07;;;17.17;;
16969;SDS011;8601;48.718;8.992;2022-08-19T09:22:57;19.70;;;17.80;;
16969;SDS011;8601;48.718;8.992;2022-08-19T09:25:24;21.87;;;19.63;;
16969;SDS011;8601;48.718;8.992;2022-08-19T09:27:52;20.07;;;17.20;;
16969;SDS011;8601;48.718;8.992;2022-08-19T09:30:22;20.50;;;18.50;;
16969;SDS011;8601;48.718;8.992;2022-08-19T09:32:52;19.70;;;17.60;;
16969;SDS011;8601;48.718;8.992;2022-08-19T09:35:20;18.37;;;16.57;;
16969;SDS011;8601;48.718;8.992;2022-08-19T09:37:48;18.90;;;16.90;;
16969;SDS011;8601;48.718;8.992;2022-08-19T09:40:18;18.37;;;16.43;;
16969;SDS011;8601;48.718;8.992;2022-08-19T09:42:45;17.80;;;16.20;;
16969;SDS011;8601;48.718;8.992;2022-08-19T09:45:12;20.07;;;16.43;;
16969;SDS011;8601;48.718;8.992;2022-08-19T09:47:40;17.67;;;16.07;;
16969;SDS011;8601;48.718;8.992;2022-08-19T09:50:08;18.03;;;16.23;;
16969;SDS011;8601;48.718;8.992;2022-08-19T09:52:36;17.90;;;16.10;;
16969;SDS011;8601;48.718;8.992;2022-08-19T09:55:04;17.00;;;15.40;;
16969;SDS011;8601;48.718;8.992;2022-08-19T09:57:34;17.83;;;15.87;;
16969;SDS011;8601;48.718;8.992;2022-08-19T10:00:01;17.93;;;16.07;;
16969;SDS011;8601;48.718;8.992;2022-08-19T10:02:29;17.50;;;15.73;;
16969;SDS011;8601;48.718;8.992;2022-08-19T10:04:56;17.30;;;15.60;;
16969;SDS011;8601;48.718;8.992;2022-08-19T10:07:41;16.80;;;15.00;;
16969;SDS011;8601;48.718;8.992;2022-08-19T10:10:08;17.67;;;15.33;;
16969;SDS011;8601;48.718;8.992;2022-08-19T10:12:37;17.07;;;15.27;;
16969;SDS011;8601;48.718;8.992;2022-08-19T10:15:05;18.73;;;15.97;;
16969;SDS011;8601;48.718;8.992;2022-08-19T10:17:33;16.20;;;14.60;;
16969;SDS011;8601;48.718;8.992;2022-08-19T10:20:00;17.03;;;15.37;;
16969;SDS011;8601;48.718;8.992;2022-08-19T10:22:29;16.67;;;14.97;;
16969;SDS011;8601;48.718;8.992;2022-08-19T10:24:56;15.13;;;13.60;;
16969;SDS011;8601;48.718;8.992;2022-08-19T10:27:23;14.67;;;13.37;;
16969;SDS011;8601;48.718;8.992;2022-08-19T10:29:51;14.30;;;12.83;;
16969;SDS011;8601;48.718;8.992;2022-08-19T10:32:18;14.20;;;12.90;;
16969;SDS011;8601;48.718;8.992;2022-08-19T10:34:46;13.53;;;12.23;;
16969;SDS011;8601;48.718;8.992;2022-08-19T10:37:14;13.07;;;11.77;;
16969;SDS011;8601;48.718;8.992;2022-08-19T10:39:42;12.67;;;11.33;;
16969;SDS011;8601;48.718;8.992;2022-08-19T10:42:13;11.37;;;10.20;;
16969;SDS011;8601;48.718;8.992;2022-08-19T10:44:41;12.47;;;10.13;;
16969;SDS011;8601;48.718;8.992;2022-08-19T10:47:10;11.30;;;10.13;;
16969;SDS011;8601;48.718;8.992;2022-08-19T10:49:37;10.10;;;9.10;;
16969;SDS011;8601;48.718;8.992;2022-08-19T10:52:24;11.33;;;9.73;;
16969;SDS011;8601;48.718;8.992;2022-08-19T10:54:59;10.53;;;9.20;;
16969;SDS011;8601;48.718;8.992;2022-08-19T10:57:43;12.60;;;9.47;;
16969;SDS011;8601;48.718;8.992;2022-08-19T11:00:10;11.13;;;10.03;;
16969;SDS011;8601;48.718;8.992;2022-08-19T11:02:40;12.20;;;11.00;;
16969;SDS011;8601;48.718;8.992;2022-08-19T11:05:07;10.33;;;8.87;;
16969;SDS011;8601;48.718;8.992;2022-08-19T11:07:37;13.00;;;11.70;;
16969;SDS011;8601;48.718;8.992;2022-08-19T11:10:05;12.00;;;10.90;;
16969;SDS011;8601;48.718;8.992;2022-08-19T11:12:33;11.60;;;10.40;;
16969;SDS011;8601;48.718;8.992;2022-08-19T11:15:04;11.90;;;10.77;;
16969;SDS011;8601;48.718;8.992;2022-08-19T11:17:32;12.97;;;11.67;;
16969;SDS011;8601;48.718;8.992;2022-08-19T11:20:02;11.30;;;10.20;;
16969;SDS011;8601;48.718;8.992;2022-08-19T11:22:30;11.20;;;9.97;;
16969;SDS011;8601;48.718;8.992;2022-08-19T11:24:57;9.80;;;8.80;;
16969;SDS011;8601;48.718;8.992;2022-08-19T11:27:24;11.63;;;10.37;;
16969;SDS011;8601;48.718;8.992;2022-08-19T11:29:51;9.60;;;8.70;;
16969;SDS011;8601;48.718;8.992;2022-08-19T11:32:19;9.90;;;8.90;;
16969;SDS011;8601;48.718;8.992;2022-08-19T11:34:45;9.93;;;9.13;;
16969;SDS011;8601;48.718;8.992;2022-08-19T11:37:14;9.80;;;8.80;;
16969;SDS011;8601;48.718;8.992;2022-08-19T11:39:41;9.40;;;8.07;;
16969;SDS011;8601;48.718;8.992;2022-08-19T11:42:07;10.07;;;9.07;;
16969;SDS011;8601;48.718;8.992;2022-08-19T11:44:48;10.70;;;8.60;;
16969;SDS011;8601;48.718;8.992;2022-08-19T11:47:15;11.70;;;7.47;;
16969;SDS011;8601;48.718;8.992;2022-08-19T11:49:42;9.20;;;8.23;;
16969;SDS011;8601;48.718;8.992;2022-08-19T11:52:09;9.07;;;8.17;;
16969;SDS011;8601;48.718;8.992;2022-08-19T11:54:38;8.83;;;6.97;;
16969;SDS011;8601;48.718;8.992;2022-08-19T11:57:05;9.07;;;8.17;;
16969;SDS011;8601;48.718;8.992;2022-08-19T11:59:32;8.77;;;7.97;;
16969;SDS011;8601;48.718;8.992;2022-08-19T12:01:59;8.03;;;6.80;;
16969;SDS011;8601;48.718;8.992;2022-08-19T12:04:26;8.40;;;7.20;;
16969;SDS011;8601;48.718;8.992;2022-08-19T12:06:53;8.17;;;7.33;;
16969;SDS011;8601;48.718;8.992;2022-08-19T12:09:21;7.73;;;6.60;;
16969;SDS011;8601;48.718;8.992;2022-08-19T12:11:49;9.30;;;6.70;;
16969;SDS011;8601;48.718;8.992;2022-08-19T12:14:18;7.20;;;6.50;;
16969;SDS011;8601;48.718;8.992;2022-08-19T12:16:46;6.83;;;6.23;;
16969;SDS011;8601;48.718;8.992;2022-08-19T12:19:13;6.90;;;6.23;;
16969;SDS011;8601;48.718;8.992;2022-08-19T12:21:40;7.53;;;6.57;;
16969;SDS011;8601;48.718;8.992;2022-08-19T12:24:07;7.07;;;6.37;;
16969;SDS011;8601;48.718;8.992;2022-08-19T12:26:34;8.07;;;6.37;;
16969;SDS011;8601;48.718;8.992;2022-08-19T12:29:03;6.67;;;6.00;;
16969;SDS011;8601;48.718;8.992;2022-08-19T12:31:30;6.80;;;5.97;;
16969;SDS011;8601;48.718;8.992;2022-08-19T12:33:58;7.10;;;6.50;;
16969;SDS011;8601;48.718;8.992;2022-08-19T12:36:28;5.70;;;5.20;;
16969;SDS011;8601;48.718;8.992;2022-08-19T12:38:57;6.27;;;5.67;;
16969;SDS011;8601;48.718;8.992;2022-08-19T12:41:25;6.47;;;5.87;;
16969;SDS011;8601;48.718;8.992;2022-08-19T12:43:53;6.73;;;5.80;;
16969;SDS011;8601;48.718;8.992;2022-08-19T12:46:21;6.30;;;5.80;;
16969;SDS011;8601;48.718;8.992;2022-08-19T12:48:48;6.63;;;5.50;;
16969;SDS011;8601;48.718;8.992;2022-08-19T12:51:17;6.73;;;5.50;;
16969;SDS011;8601;48.718;8.992;2022-08-19T12:53:45;7.90;;;5.70;;
16969;SDS011;8601;48.718;8.992;2022-08-19T12:56:12;6.13;;;5.63;;
16969;SDS011;8601;48.718;8.992;2022-08-19T12:58:40;8.30;;;6.27;;
16969;SDS011;8601;48.718;8.992;2022-08-19T13:01:09;6.40;;;5.80;;
16969;SDS011;8601;48.718;8.992;2022-08-19T13:03:39;6.33;;;5.73;;
16969;SDS011;8601;48.718;8.992;2022-08-19T13:06:06;6.40;;;5.90;;
16969;SDS011;8601;48.718;8.992;2022-08-19T13:08:34;8.67;;;6.20;;
16969;SDS011;8601;48.718;8.992;2022-08-19T13:11:08;6.17;;;5.50;;
16969;SDS011;8601;48.718;8.992;2022-08-19T13:13:37;6.70;;;6.00;;
16969;SDS011;8601;48.718;8.992;2022-08-19T13:16:07;6.50;;;6.00;;
16969;SDS011;8601;48.718;8.992;2022-08-19T13:18:36;6.77;;;6.10;;
16969;SDS011;8601;48.718;8.992;2022-08-19T13:21:06;6.20;;;5.70;;
16969;SDS011;8601;48.718;8.992;2022-08-19T13:23:35;6.90;;;5.77;;
16969;SDS011;8601;48.718;8.992;2022-08-19T13:26:03;6.90;;;5.97;;
16969;SDS011;8601;48.718;8.992;2022-08-19T13:28:31;6.47;;;5.87;;
16969;SDS011;8601;48.718;8.992;2022-08-19T13:31:14;5.93;;;5.43;;
16969;SDS011;8601;48.718;8.992;2022-08-19T13:33:59;6.07;;;5.47;;
16969;SDS011;8601;48.718;8.992;2022-08-19T13:36:28;5.90;;;5.23;;
16969;SDS011;8601;48.718;8.992;2022-08-19T13:38:56;5.60;;;5.20;;
16969;SDS011;8601;48.718;8.992;2022-08-19T13:41:23;6.27;;;5.67;;
16969;SDS011;8601;48.718;8.992;2022-08-19T13:43:51;9.70;;;7.13;;
16969;SDS011;8601;48.718;8.992;2022-08-19T13:46:20;6.77;;;6.27;;
16969;SDS011;8601;48.718;8.992;2022-08-19T13:48:47;7.90;;;7.00;;
16969;SDS011;8601;48.718;8.992;2022-08-19T13:51:14;8.43;;;7.17;;
16969;SDS011;8601;48.718;8.992;2022-08-19T13:53:43;7.30;;;6.60;;
16969;SDS011;8601;48.718;8.992;2022-08-19T13:56:14;9.90;;;6.93;;
16969;SDS011;8601;48.718;8.992;2022-08-19T13:58:44;7.23;;;6.60;;
16969;SDS011;8601;48.718;8.992;2022-08-19T14:01:17;7.33;;;6.67;;
16969;SDS011;8601;48.718;8.992;2022-08-19T14:03:45;8.30;;;7.47;;
16969;SDS011;8601;48.718;8.992;2022-08-19T14:06:12;7.83;;;6.80;;
16969;SDS011;8601;48.718;8.992;2022-08-19T14:08:40;8.33;;;7.60;;
16969;SDS011;8601;48.718;8.992;2022-08-19T14:11:09;8.20;;;7.40;;
16969;SDS011;8601;48.718;8.992;2022-08-19T14:13:36;7.50;;;6.80;;
16969;SDS011;8601;48.718;8.992;2022-08-19T14:16:06;9.07;;;6.53;;
16969;SDS011;8601;48.718;8.992;2022-08-19T14:18:33;8.13;;;7.20;;
16969;SDS011;8601;48.718;8.992;2022-08-19T14:21:00;7.77;;;7.17;;
16969;SDS011;8601;48.718;8.992;2022-08-19T14:23:28;7.70;;;7.00;;
16969;SDS011;8601;48.718;8.992;2022-08-19T14:26:02;7.37;;;6.73;;
16969;SDS011;8601;48.718;8.992;2022-08-19T14:28:31;7.33;;;6.73;;
16969;SDS011;8601;48.718;8.992;2022-08-19T14:30:59;7.20;;;6.50;;
16969;SDS011;8601;48.718;8.992;2022-08-19T14:33:26;7.70;;;6.60;;
16969;SDS011;8601;48.718;8.992;2022-08-19T14:35:53;7.33;;;6.80;;
16969;SDS011;8601;48.718;8.992;2022-08-19T14:38:20;7.90;;;7.27;;
16969;SDS011;8601;48.718;8.992;2022-08-19T14:40:47;7.03;;;6.43;;
16969;SDS011;8601;48.718;8.992;2022-08-19T14:43:14;7.40;;;6.70;;
16969;SDS011;8601;48.718;8.992;2022-08-19T14:45:44;7.07;;;6.40;;
16969;SDS011;8601;48.718;8.992;2022-08-19T14:48:10;7.87;;;6.93;;
16969;SDS011;8601;48.718;8.992;2022-08-19T14:50:38;6.80;;;6.20;;